Time;durP1;ratioP1;P1;durP2;ratioP2;P2;SDS_P1;SDS_P2;PMS_P1;PMS_P2;Temp;Humidity;BMP_temperature;BMP_pressure;BME280_temperature;BME280_humidity;BME280_pressure;Samples;Min_cycle;Max_cycle;Signal;HPM_P1;HPM_P2
2022/01/20 00:02:20;;;;;;;24.75;13.93;;;;;;;-0.55;72.05;95594.56;4938909;29;20609;-82
2022/01/20 00:04:51;;;;;;;22.25;13.23;;;;;;;-0.55;72.34;95594.56;4938888;29;20205;-82
2022/01/20 00:07:33;;;;;;;27.65;14.90;;;;;;;-0.56;72.44;95597.19;4939063;29;20212;-83
2022/01/20 00:26:29;;;;;;;21.92;12.82;;;;;;;-0.71;72.58;95576.13;4937881;29;20191;-82
2022/01/20 00:29:00;;;;;;;18.83;11.52;;;;;;;-0.72;72.34;95577.00;4938054;29;20202;-83
2022/01/20 00:31:43;;;;;;;21.30;11.63;;;;;;;-0.71;72.10;95565.81;4938130;29;20651;-83
2022/01/20 00:34:17;;;;;;;19.52;11.95;;;;;;;-0.74;72.11;95560.75;4896119;29;20202;-83
2022/01/20 00:39:30;;;;;;;31.55;13.95;;;;;;;-0.82;71.92;95567.88;4938235;29;20323;-82
2022/01/20 00:41:58;;;;;;;19.13;13.77;;;;;;;-0.85;72.15;95561.97;4905147;29;20206;-83
2022/01/20 00:44:26;;;;;;;22.63;11.25;;;;;;;-0.83;71.96;95560.19;4937785;29;20195;-83
2022/01/20 00:46:55;;;;;;;17.70;11.70;;;;;;;-0.82;72.40;95562.72;4938030;29;20229;-82
2022/01/20 00:49:22;;;;;;;26.13;12.50;;;;;;;-0.83;72.62;95563.63;4904513;29;20210;-83
2022/01/20 00:51:49;;;;;;;18.85;12.07;;;;;;;-0.87;72.68;95551.69;4938465;29;20199;-82
2022/01/20 00:54:16;;;;;;;22.02;12.40;;;;;;;-0.87;72.64;95554.25;4938031;29;20208;-83
2022/01/20 00:56:43;;;;;;;32.95;12.65;;;;;;;-0.89;72.34;95550.88;4937655;29;20195;-83
2022/01/20 01:02:33;;;;;;;22.23;12.45;;;;;;;-0.99;72.62;95544.34;4937386;29;20178;-82
2022/01/20 01:05:00;;;;;;;15.82;12.35;;;;;;;-1.04;72.55;95552.19;4937395;29;20650;-83
2022/01/20 01:07:47;;;;;;;22.02;11.98;;;;;;;-1.04;73.52;95551.34;4889295;29;20242;-83
2022/01/20 01:10:16;;;;;;;20.83;11.95;;;;;;;-1.09;73.57;95546.34;4937463;29;20659;-83
2022/01/20 01:12:49;;;;;;;21.80;13.40;;;;;;;-1.16;73.38;95542.25;4937742;29;20715;-82
2022/01/20 01:15:20;;;;;;;23.27;13.32;;;;;;;-1.15;73.09;95545.69;4937590;29;20217;-82
2022/01/20 01:20:55;;;;;;;16.02;12.98;;;;;;;-1.16;72.87;95533.66;4937240;29;20238;-83
2022/01/20 01:23:21;;;;;;;30.52;14.15;;;;;;;-1.24;73.05;95536.47;4937365;29;20643;-82
2022/01/20 01:25:48;;;;;;;23.85;13.43;;;;;;;-1.28;73.07;95527.16;4937336;29;20206;-82
2022/01/20 01:38:42;;;;;;;25.00;11.23;;;;;;;-1.33;73.66;95522.16;4937018;29;20230;-82
2022/01/20 01:41:12;;;;;;;25.42;11.88;;;;;;;-1.29;73.40;95521.16;4918879;29;20282;-82
2022/01/20 01:43:42;;;;;;;21.83;12.75;;;;;;;-1.27;75.10;95509.09;4937128;29;20191;-82
2022/01/20 01:46:09;;;;;;;17.75;11.25;;;;;;;-1.24;74.50;95508.16;4936676;29;20198;-82
2022/01/20 01:48:36;;;;;;;27.02;11.13;;;;;;;-1.23;73.76;95507.25;4903972;29;20231;-82
2022/01/20 01:51:03;;;;;;;20.33;11.82;;;;;;;-1.19;73.30;95500.28;4936850;29;20206;-83
2022/01/20 01:53:30;;;;;;;22.70;11.70;;;;;;;-1.25;73.11;95494.44;4936559;29;20757;-82
2022/01/20 01:55:58;;;;;;;26.02;12.25;;;;;;;-1.23;73.21;95496.97;4936724;29;20198;-82
2022/01/20 01:58:25;;;;;;;22.02;12.52;;;;;;;-1.26;73.08;95497.91;4936844;29;20706;-83
2022/01/20 02:00:52;;;;;;;20.73;11.52;;;;;;;-1.27;73.20;95493.66;4887994;29;20207;-82
2022/01/20 02:03:19;;;;;;;14.73;10.25;;;;;;;-1.29;72.69;95492.00;4936344;29;20191;-83
2022/01/20 02:06:08;;;;;;;13.88;11.02;;;;;;;-1.30;73.06;95491.16;4936924;29;20222;-83
2022/01/20 02:08:41;;;;;;;15.13;11.00;;;;;;;-1.32;72.78;95487.78;4936418;29;20226;-83
2022/01/20 02:19:26;;;;;;;20.75;10.95;;;;;;;-1.34;72.46;95479.28;4936456;29;20218;-82
2022/01/20 02:21:56;;;;;;;18.70;11.15;;;;;;;-1.39;72.22;95478.56;4937335;29;20227;-82
2022/01/20 02:31:07;;;;;;;20.30;11.60;;;;;;;-1.37;72.63;95469.06;4936256;29;20210;-82
2022/01/20 02:33:34;;;;;;;19.27;11.70;;;;;;;-1.37;72.00;95470.81;4936040;29;20199;-83
2022/01/20 02:36:06;;;;;;;20.73;10.65;;;;;;;-1.38;71.92;95456.25;4936902;29;20202;-83
2022/01/20 02:38:38;;;;;;;19.35;11.05;;;;;;;-1.40;71.75;95458.88;4936108;29;20222;-83
2022/01/20 02:46:35;;;;;;;17.73;9.90;;;;;;;-1.42;73.11;95457.22;4936517;29;20210;-82
2022/01/20 02:49:02;;;;;;;15.60;9.98;;;;;;;-1.41;73.13;95456.34;4887772;29;20226;-82
2022/01/20 02:51:29;;;;;;;17.70;9.93;;;;;;;-1.44;72.99;95441.84;4936802;29;20187;-82
2022/01/20 02:53:57;;;;;;;17.98;10.75;;;;;;;-1.45;73.09;95453.00;4939978;29;20571;-83
2022/01/20 02:56:24;;;;;;;17.25;10.10;;;;;;;-1.45;73.49;95452.16;4940047;29;20190;-82
2022/01/20 02:58:51;;;;;;;16.98;11.13;;;;;;;-1.45;73.17;95442.69;4939673;29;20565;-82
2022/01/20 03:01:18;;;;;;;15.52;10.52;;;;;;;-1.41;72.97;95441.75;4940465;29;20213;-82
2022/01/20 03:03:45;;;;;;;18.60;11.75;;;;;;;-1.43;72.36;95435.81;4939493;29;20205;-82
2022/01/20 03:06:12;;;;;;;23.42;10.50;;;;;;;-1.41;71.99;95438.31;4939731;29;20222;-83
2022/01/20 03:08:39;;;;;;;21.80;10.88;;;;;;;-1.39;72.08;95437.38;4940008;29;20223;-83
2022/01/20 03:11:08;;;;;;;20.92;10.73;;;;;;;-1.41;71.56;95438.31;4940280;29;20191;-83
2022/01/20 03:13:35;;;;;;;15.00;9.38;;;;;;;-1.41;71.83;95446.88;4939729;29;20187;-82
2022/01/20 03:16:02;;;;;;;21.95;10.32;;;;;;;-1.43;71.34;95434.97;4939713;29;20187;-83
2022/01/20 03:18:29;;;;;;;17.80;8.43;;;;;;;-1.49;72.34;95435.13;4941708;29;20560;-83
2022/01/20 03:20:56;;;;;;;18.15;10.02;;;;;;;-1.47;71.78;95433.34;4942373;29;20210;-83
2022/01/20 03:23:23;;;;;;;18.70;9.25;;;;;;;-1.46;71.73;95435.03;4940570;29;20202;-83
2022/01/20 03:25:50;;;;;;;17.92;9.98;;;;;;;-1.44;71.78;95433.28;4939295;29;20191;-82
2022/01/20 03:28:18;;;;;;;15.48;10.23;;;;;;;-1.46;72.13;95435.84;4921845;29;20230;-83
2022/01/20 03:30:45;;;;;;;13.30;9.18;;;;;;;-1.52;72.64;95437.78;4939256;29;20190;-83
2022/01/20 03:33:12;;;;;;;15.35;10.85;;;;;;;-1.61;72.61;95432.03;4939307;29;20198;-83
2022/01/20 03:35:40;;;;;;;17.20;9.52;;;;;;;-1.59;72.38;95434.53;4939498;29;20658;-83
2022/01/20 03:38:08;;;;;;;15.82;9.70;;;;;;;-1.63;72.08;95433.78;4939674;29;20199;-82
2022/01/20 03:40:35;;;;;;;13.52;9.52;;;;;;;-1.65;72.18;95422.72;4939357;29;20195;-82
2022/01/20 03:43:02;;;;;;;14.98;9.25;;;;;;;-1.64;72.07;95418.41;4939326;29;20209;-83
2022/01/20 03:45:30;;;;;;;13.63;9.55;;;;;;;-1.65;73.19;95420.13;4939352;29;20187;-82
2022/01/20 03:48:06;;;;;;;20.67;8.70;;;;;;;-1.70;73.26;95422.00;4905696;29;20237;-82
2022/01/20 03:56:39;;;;;;;15.52;10.13;;;;;;;-1.76;73.48;95411.03;4938939;29;20175;-83
2022/01/20 03:59:06;;;;;;;14.75;9.65;;;;;;;-1.71;73.78;95417.75;4938407;29;20191;-83
2022/01/20 04:01:34;;;;;;;19.00;10.63;;;;;;;-1.70;72.97;95408.31;4939257;29;20211;-83
2022/01/20 04:04:01;;;;;;;12.93;10.85;;;;;;;-1.73;73.33;95418.69;4937865;29;20198;-83
2022/01/20 04:06:28;;;;;;;14.02;8.70;;;;;;;-1.72;72.06;95412.66;4938558;29;20281;-83
2022/01/20 04:08:55;;;;;;;18.65;9.85;;;;;;;-1.74;72.36;95414.41;4938241;29;20219;-82
2022/01/20 04:11:29;;;;;;;26.52;13.10;;;;;;;-1.77;72.49;95417.06;4938932;29;20241;-83
2022/01/20 04:13:56;;;;;;;22.17;12.95;;;;;;;-1.79;71.61;95411.97;4938334;29;20545;-83
2022/01/20 04:16:33;;;;;;;14.43;10.23;;;;;;;-1.84;72.09;95411.25;4939438;29;20187;-83
2022/01/20 04:19:04;;;;;;;18.23;9.80;;;;;;;-1.85;71.96;95416.44;4939244;29;20642;-83
2022/01/20 04:21:31;;;;;;;18.10;12.18;;;;;;;-1.86;71.70;95407.88;4939457;29;20197;-83
2022/01/20 04:24:00;;;;;;;16.17;10.00;;;;;;;-1.85;71.76;95401.84;4939057;29;20206;-83
2022/01/20 04:26:29;;;;;;;16.67;9.43;;;;;;;-1.88;72.02;95407.94;4938426;29;20206;-83
2022/01/20 04:28:57;;;;;;;15.10;10.00;;;;;;;-1.87;71.98;95407.03;4938072;29;20211;-83
2022/01/20 04:31:25;;;;;;;19.75;11.15;;;;;;;-1.89;72.40;95400.25;4938428;29;20197;-83
2022/01/20 04:33:52;;;;;;;11.85;9.23;;;;;;;-1.85;72.11;95408.72;4938212;29;20206;-82
2022/01/20 04:36:20;;;;;;;19.33;10.70;;;;;;;-1.88;72.08;95407.94;4938614;29;20198;-82
2022/01/20 04:38:47;;;;;;;17.65;10.23;;;;;;;-1.90;71.78;95409.69;4904552;29;20214;-82
2022/01/20 04:41:14;;;;;;;15.90;9.50;;;;;;;-1.88;72.08;95401.94;4938021;29;20218;-83
2022/01/20 04:43:41;;;;;;;18.85;9.52;;;;;;;-1.86;71.55;95410.47;4938188;29;20199;-83
2022/01/20 04:58:58;;;;;;;19.00;10.07;;;;;;;-2.00;72.71;95398.00;4938207;29;20213;-82
2022/01/20 05:01:25;;;;;;;17.15;11.10;;;;;;;-2.02;72.78;95397.19;4938130;29;20206;-82
2022/01/20 05:03:54;;;;;;;21.30;11.20;;;;;;;-2.02;72.78;95409.22;4938210;29;20191;-82
2022/01/20 05:06:21;;;;;;;19.92;10.25;;;;;;;-2.10;73.05;95404.25;4889623;29;21006;-83
2022/01/20 05:08:49;;;;;;;19.90;11.30;;;;;;;-2.13;72.92;95406.91;4937407;29;20214;-83
2022/01/20 05:11:18;;;;;;;20.33;10.32;;;;;;;-2.10;72.57;95409.41;4938085;29;20262;-82
2022/01/20 05:13:44;;;;;;;19.27;10.50;;;;;;;-2.19;73.00;95405.38;4938507;29;20193;-82
2022/01/20 05:16:11;;;;;;;17.08;9.80;;;;;;;-2.17;73.58;95402.75;4936537;29;20210;-82
2022/01/20 05:18:38;;;;;;;19.08;10.25;;;;;;;-2.17;73.37;95412.19;4904143;29;20202;-83
2022/01/20 05:21:05;;;;;;;18.48;10.85;;;;;;;-2.17;73.78;95405.31;4937853;29;20198;-82
2022/01/20 05:23:33;;;;;;;17.38;11.65;;;;;;;-2.14;73.17;95410.38;4937332;29;20195;-83
2022/01/20 05:26:00;;;;;;;22.33;12.25;;;;;;;-2.16;73.71;95408.72;4904341;29;20290;-82
2022/01/20 05:28:28;;;;;;;20.05;9.95;;;;;;;-2.24;73.66;95409.78;4938611;29;20674;-83
2022/01/20 05:30:55;;;;;;;21.05;10.75;;;;;;;-2.26;73.50;95413.28;4938615;29;20201;-83
2022/01/20 05:33:22;;;;;;;18.52;10.73;;;;;;;-2.24;73.24;95407.22;4938891;29;20226;-82
2022/01/20 05:35:49;;;;;;;17.48;10.73;;;;;;;-2.22;73.60;95407.19;4938769;29;20210;-82
2022/01/20 05:38:16;;;;;;;17.35;9.98;;;;;;;-2.19;73.68;95417.38;4889502;29;20206;-83
2022/01/20 05:40:43;;;;;;;19.58;11.68;;;;;;;-2.21;73.40;95420.00;4938198;29;20194;-82
2022/01/20 05:43:10;;;;;;;24.38;11.85;;;;;;;-2.21;73.42;95420.00;4904212;29;20199;-83
2022/01/20 05:45:38;;;;;;;17.92;9.90;;;;;;;-2.23;73.70;95410.63;4938591;29;20616;-83
2022/01/20 05:48:13;;;;;;;25.70;13.10;;;;;;;-2.32;73.15;95414.28;4937842;29;20222;-83
2022/01/20 05:50:40;;;;;;;17.55;11.25;;;;;;;-2.33;73.66;95415.16;4938500;29;20206;-82
2022/01/20 05:53:07;;;;;;;22.08;12.88;;;;;;;-2.38;73.68;95405.88;4937015;29;20281;-83
2022/01/20 05:55:34;;;;;;;27.65;12.82;;;;;;;-2.33;73.83;95416.88;4937233;29;20195;-83
2022/01/20 05:58:02;;;;;;;21.52;13.00;;;;;;;-2.32;73.81;95405.72;4936859;29;20460;-84
2022/01/20 06:00:29;;;;;;;32.47;15.18;;;;;;;-2.25;73.85;95409.84;4936956;29;20203;-83
2022/01/20 06:05:42;;;;;;;29.30;15.85;;;;;;;-2.16;74.17;95412.16;4941975;29;20254;-82
2022/01/20 06:08:11;;;;;;;25.52;14.02;;;;;;;-2.12;74.83;95418.03;4946467;29;20223;-81
2022/01/20 06:10:38;;;;;;;24.35;13.38;;;;;;;-2.09;74.51;95416.22;4945929;29;20294;-84
2022/01/20 06:13:06;;;;;;;22.08;14.07;;;;;;;-2.09;74.19;95415.38;4944084;29;20710;-84
2022/01/20 06:15:33;;;;;;;26.83;13.63;;;;;;;-2.08;73.72;95411.94;4945643;29;20222;-83
2022/01/20 06:18:02;;;;;;;34.00;15.07;;;;;;;-2.07;73.33;95411.88;4938346;29;20211;-85
2022/01/20 06:20:30;;;;;;;26.70;17.48;;;;;;;-2.01;74.80;95411.75;4889130;29;20209;-83
2022/01/20 06:22:57;;;;;;;41.83;19.05;;;;;;;-1.89;75.58;95413.97;4938932;29;20233;-84
2022/01/20 06:25:25;;;;;;;25.92;15.38;;;;;;;-1.78;73.80;95410.22;4936774;29;20194;-86
2022/01/20 06:27:52;;;;;;;30.10;15.75;;;;;;;-1.69;73.81;95423.69;4936878;29;20207;-84
2022/01/20 06:30:20;;;;;;;30.80;16.17;;;;;;;-1.60;72.93;95423.41;4936610;29;20202;-86
2022/01/20 06:32:47;;;;;;;29.60;16.42;;;;;;;-1.57;72.25;95420.75;4937661;29;20292;-87
2022/01/20 06:35:15;;;;;;;24.85;17.10;;;;;;;-1.57;72.53;95422.47;4887597;29;20563;-84
2022/01/20 06:37:42;;;;;;;32.63;19.33;;;;;;;-1.49;71.56;95424.81;4903338;29;20234;-84
2022/01/20 06:40:13;;;;;;;30.55;18.13;;;;;;;-1.52;71.44;95425.75;4932508;29;20634;-82
2022/01/20 06:42:41;;;;;;;35.50;15.95;;;;;;;-1.51;71.28;95424.03;4923762;29;20207;-83
2022/01/20 06:45:11;;;;;;;29.42;14.95;;;;;;;-1.48;71.67;95423.94;4941015;29;20621;-84
2022/01/20 06:47:38;;;;;;;20.95;13.20;;;;;;;-1.45;71.48;95416.97;4922116;29;20559;-83
2022/01/20 06:50:08;;;;;;;22.95;13.27;;;;;;;-1.42;71.39;95416.06;4917015;29;20229;-84
2022/01/20 06:52:37;;;;;;;25.55;11.88;;;;;;;-1.35;70.72;95417.53;4884427;29;20209;-84
2022/01/20 06:55:07;;;;;;;24.08;12.45;;;;;;;-1.34;70.10;95402.06;4917862;29;20211;-84
2022/01/20 06:57:34;;;;;;;17.65;11.70;;;;;;;-1.28;71.11;95401.84;4918310;29;20206;-83
2022/01/20 07:00:01;;;;;;;20.75;12.55;;;;;;;-1.17;71.56;95403.25;4917912;29;20211;-83
2022/01/20 07:02:28;;;;;;;19.67;13.23;;;;;;;-1.10;71.11;95407.34;4917831;29;20201;-83
2022/01/20 07:04:55;;;;;;;21.33;14.48;;;;;;;-1.09;71.50;95399.56;4917903;29;20207;-83
2022/01/20 07:07:22;;;;;;;29.73;17.23;;;;;;;-1.10;71.16;95407.34;4884043;29;20628;-83
2022/01/20 07:09:50;;;;;;;25.75;20.20;;;;;;;-0.98;70.53;95412.09;4917204;29;20223;-83
2022/01/20 07:12:17;;;;;;;29.25;17.38;;;;;;;-0.89;70.38;95410.94;4917917;29;20617;-82
2022/01/20 07:14:44;;;;;;;29.45;16.60;;;;;;;-0.79;70.26;95410.63;4918287;29;20294;-83
2022/01/20 07:17:11;;;;;;;38.80;16.08;;;;;;;-0.69;70.31;95419.72;4917255;29;20573;-83
2022/01/20 07:19:38;;;;;;;30.98;13.38;;;;;;;-0.63;70.21;95414.38;4915910;29;20211;-82
2022/01/20 07:22:05;;;;;;;22.38;11.90;;;;;;;-0.43;69.62;95420.59;4917426;29;20200;-84
2022/01/20 07:24:32;;;;;;;24.98;13.23;;;;;;;-0.30;69.71;95401.22;4917365;29;20779;-84
2022/01/20 07:27:00;;;;;;;30.63;14.77;;;;;;;-0.20;69.07;95404.34;4917970;29;20199;-84
2022/01/20 07:29:28;;;;;;;27.13;13.02;;;;;;;-0.11;68.79;95396.28;4915662;29;20227;-84
2022/01/20 07:31:55;;;;;;;20.50;12.43;;;;;;;0.02;68.50;95397.56;4917347;29;20195;-84
2022/01/20 07:34:22;;;;;;;18.80;11.40;;;;;;;0.17;67.94;95393.56;4917481;29;20213;-85
2022/01/20 07:36:49;;;;;;;26.20;11.82;;;;;;;0.27;67.71;95398.31;4919002;29;20219;-83
2022/01/20 07:39:16;;;;;;;28.23;13.25;;;;;;;0.27;67.22;95407.81;4885555;29;20214;-84
2022/01/20 07:41:43;;;;;;;20.60;12.02;;;;;;;0.33;66.98;95396.44;4920837;29;20242;-83
2022/01/20 07:44:12;;;;;;;34.03;12.15;;;;;;;0.40;66.70;95401.31;4920942;29;20211;-84
2022/01/20 07:46:39;;;;;;;25.30;13.73;;;;;;;0.48;67.11;95388.13;4920875;29;20205;-84
2022/01/20 07:49:06;;;;;;;36.95;14.43;;;;;;;0.57;66.40;95401.50;4920794;29;20315;-84
2022/01/20 07:51:34;;;;;;;26.20;13.10;;;;;;;0.51;65.98;95396.56;4920188;29;20199;-84
2022/01/20 07:54:01;;;;;;;21.15;11.65;;;;;;;2.12;94.05;95388.28;4915375;29;20547;-83
2022/01/20 07:56:28;;;;;;;25.27;12.75;;;;;;;1.99;71.62;95393.16;4906606;29;20571;-84
2022/01/20 07:58:55;;;;;;;24.10;13.60;;;;;;;1.88;65.08;95399.69;4901712;29;20267;-84
2022/01/20 08:01:25;;;;;;;28.00;16.10;;;;;;;1.94;64.24;95397.69;4902027;29;20461;-84
2022/01/20 08:07:14;;;;;;;26.57;15.60;;;;;;;1.75;63.43;95399.41;4909315;29;20752;-83
2022/01/20 08:09:41;;;;;;;23.65;13.80;;;;;;;1.63;62.38;95416.25;4905547;29;20492;-83
2022/01/20 08:12:08;;;;;;;20.70;13.18;;;;;;;1.58;62.93;95413.03;4900748;29;20610;-84
2022/01/20 08:14:35;;;;;;;19.00;12.93;;;;;;;1.67;62.31;95412.63;4852801;29;20205;-84
2022/01/20 08:17:04;;;;;;;34.55;18.05;;;;;;;1.76;62.47;95409.69;4900834;29;20201;-85
2022/01/20 08:19:31;;;;;;;38.50;15.68;;;;;;;1.69;61.96;95410.81;4901053;29;20211;-85
2022/01/20 08:21:58;;;;;;;20.42;11.85;;;;;;;1.60;61.68;95405.19;4902171;29;20207;-85
2022/01/20 08:24:25;;;;;;;19.45;12.45;;;;;;;1.60;61.28;95400.88;4900683;29;20275;-85
2022/01/20 08:26:52;;;;;;;24.48;13.07;;;;;;;1.57;61.27;95403.59;4900690;29;20185;-84
2022/01/20 08:29:19;;;;;;;28.55;14.80;;;;;;;1.56;61.29;95381.22;4900968;29;20212;-84
2022/01/20 08:31:46;;;;;;;19.52;11.57;;;;;;;1.49;60.35;95378.06;4883187;29;20290;-84
2022/01/20 08:34:15;;;;;;;28.57;16.67;;;;;;;1.63;60.33;95382.63;4900301;29;20202;-84
2022/01/20 08:36:44;;;;;;;23.65;14.98;;;;;;;1.60;60.05;95377.59;4900251;29;20453;-85
2022/01/20 08:41:55;;;;;;;21.58;13.50;;;;;;;1.54;60.78;95385.63;4919131;29;20206;-84
2022/01/20 08:44:25;;;;;;;24.50;13.07;;;;;;;1.39;59.86;95381.06;4919692;29;20214;-84
2022/01/20 08:46:57;;;;;;;31.95;14.10;;;;;;;1.43;60.76;95385.19;4919222;29;20465;-84
2022/01/20 08:49:29;;;;;;;25.07;13.20;;;;;;;1.46;60.17;95373.00;4918707;29;20219;-84
2022/01/20 08:51:59;;;;;;;26.75;14.80;;;;;;;1.47;60.06;95381.59;4918861;29;20444;-84
2022/01/20 08:54:26;;;;;;;30.40;14.00;;;;;;;1.55;58.93;95377.78;4916632;29;20203;-83
2022/01/20 08:56:53;;;;;;;28.75;15.45;;;;;;;1.60;59.66;95375.00;4918120;29;20211;-83
2022/01/20 08:59:22;;;;;;;22.60;13.63;;;;;;;1.65;59.09;95383.41;4920851;29;20200;-83
2022/01/20 09:01:49;;;;;;;40.70;20.15;;;;;;;1.73;59.87;95376.16;4924480;29;20559;-83
2022/01/20 09:04:16;;;;;;;27.95;14.05;;;;;;;1.74;58.08;95377.03;4918274;29;20242;-84
2022/01/20 09:06:44;;;;;;;25.53;12.67;;;;;;;1.82;58.23;95375.78;4919082;29;20283;-84
2022/01/20 09:09:11;;;;;;;26.10;12.40;;;;;;;1.83;58.08;95377.47;4918726;29;20492;-84
2022/01/20 09:11:50;;;;;;;20.40;13.30;;;;;;;2.06;58.08;95373.03;4919862;29;20243;-84
2022/01/20 09:17:01;;;;;;;25.03;13.50;;;;;;;2.46;57.79;95372.94;4918838;29;20195;-83
2022/01/20 09:22:52;;;;;;;31.17;15.47;;;;;;;2.80;56.63;95369.63;4920469;29;20563;-84
2022/01/20 09:25:20;;;;;;;24.60;13.83;;;;;;;2.90;56.44;95364.88;4918570;29;20445;-83
2022/01/20 09:27:47;;;;;;;23.67;13.47;;;;;;;2.80;56.02;95369.63;4918592;29;20539;-84
2022/01/20 09:30:18;;;;;;;27.67;13.10;;;;;;;2.92;56.64;95352.66;4918633;29;20480;-84
2022/01/20 09:32:56;;;;;;;46.63;19.83;;;;;;;3.02;55.99;95353.91;4873738;29;20507;-83
2022/01/20 09:35:23;;;;;;;27.60;14.57;;;;;;;3.14;55.97;95352.47;4918296;29;20463;-84
2022/01/20 09:37:51;;;;;;;25.33;15.57;;;;;;;3.23;55.99;95339.06;4917915;29;20445;-83
2022/01/20 09:40:18;;;;;;;28.33;15.45;;;;;;;3.42;54.41;95339.81;4916307;29;20455;-84
2022/01/20 09:42:45;;;;;;;26.33;14.33;;;;;;;3.57;52.58;95338.22;4918134;29;20212;-84
2022/01/20 09:45:14;;;;;;;27.83;13.23;;;;;;;3.63;51.98;95335.31;4917778;29;20446;-84
2022/01/20 09:47:43;;;;;;;36.77;14.17;;;;;;;3.79;51.04;95325.00;4918355;29;20438;-84
2022/01/20 09:50:11;;;;;;;33.20;12.93;;;;;;;3.93;51.49;95317.34;4918131;29;20482;-84
2022/01/20 09:52:38;;;;;;;30.30;14.93;;;;;;;4.12;52.73;95316.38;4917593;29;20509;-82
2022/01/20 09:55:07;;;;;;;25.87;12.37;;;;;;;4.30;51.03;95315.38;4917969;29;20522;-84
2022/01/20 09:57:34;;;;;;;42.70;14.10;;;;;;;4.44;50.48;95309.47;4917841;29;20447;-83
2022/01/20 10:00:03;;;;;;;20.90;13.27;;;;;;;4.37;48.48;95303.78;4917980;29;20461;-84
2022/01/20 10:02:30;;;;;;;24.30;14.83;;;;;;;4.45;50.58;95295.56;4917357;29;20963;-84
2022/01/20 10:04:57;;;;;;;35.50;16.50;;;;;;;4.58;49.44;95294.78;4917814;29;20445;-84
2022/01/20 10:07:33;;;;;;;27.33;14.67;;;;;;;4.74;49.93;95289.59;4917344;29;20478;-84
2022/01/20 10:10:00;;;;;;;36.47;13.50;;;;;;;4.87;48.93;95274.13;4918137;29;20479;-84
2022/01/20 10:12:31;;;;;;;22.93;12.90;;;;;;;4.88;49.51;95263.63;4868927;29;20478;-84
2022/01/20 10:14:59;;;;;;;20.53;12.83;;;;;;;4.90;49.34;95271.34;4917374;29;20914;-84
2022/01/20 10:17:29;;;;;;;18.97;12.00;;;;;;;5.01;49.35;95270.75;4884668;29;20448;-83
2022/01/20 10:20:00;;;;;;;19.53;11.97;;;;;;;5.11;48.58;95264.09;4917536;29;20451;-84
2022/01/20 10:22:33;;;;;;;20.17;12.93;;;;;;;5.13;48.21;95263.09;4900608;29;20498;-84
2022/01/20 10:25:03;;;;;;;28.93;13.00;;;;;;;5.21;49.20;95252.25;4917585;29;20450;-84
2022/01/20 10:27:32;;;;;;;37.13;15.63;;;;;;;5.33;48.39;95251.53;4917783;29;20450;-84
2022/01/20 10:30:00;;;;;;;26.83;14.57;;;;;;;5.34;47.59;95244.56;4917570;29;20494;-84
2022/01/20 10:32:28;;;;;;;23.47;13.60;;;;;;;5.41;47.48;95246.72;4917068;29;20444;-85
2022/01/20 10:35:04;;;;;;;23.10;11.93;;;;;;;5.48;47.95;95242.81;4917439;29;20454;-84
2022/01/20 10:37:31;;;;;;;25.37;13.17;;;;;;;5.48;47.30;95236.75;4917058;29;20437;-84
2022/01/20 10:40:09;;;;;;;26.87;13.20;;;;;;;5.52;47.17;95235.69;4916928;29;20440;-83
2022/01/20 10:42:43;;;;;;;29.80;14.30;;;;;;;5.55;48.00;95227.69;4917160;29;20782;-84
2022/01/20 10:48:58;;;;;;;24.10;13.10;;;;;;;5.69;47.96;95219.03;4917030;29;20502;-83
2022/01/20 10:51:24;;;;;;;36.50;19.60;;;;;;;5.47;46.55;95207.31;4916742;29;20479;-84
2022/01/20 10:53:59;;;;;;;25.83;13.10;;;;;;;5.37;46.58;95200.97;4916828;29;21035;-84
2022/01/20 10:56:27;;;;;;;17.87;11.30;;;;;;;5.51;46.42;95197.56;4917200;29;20501;-88
2022/01/20 10:58:55;;;;;;;28.37;15.43;;;;;;;5.62;47.02;95191.72;4923462;29;20456;-83
2022/01/20 11:01:23;;;;;;;24.10;13.20;;;;;;;5.58;45.62;95188.47;4930814;29;20543;-81
2022/01/20 11:03:50;;;;;;;30.63;12.70;;;;;;;5.65;46.13;95176.75;4931545;29;20482;-84
2022/01/20 11:06:18;;;;;;;21.23;10.87;;;;;;;5.80;46.48;95186.22;4930306;29;20490;-83
2022/01/20 11:08:45;;;;;;;35.70;14.00;;;;;;;5.76;45.30;95176.06;4930388;29;20478;-83
2022/01/20 11:11:15;;;;;;;25.17;11.20;;;;;;;5.96;46.51;95169.69;4882306;29;20499;-83
2022/01/20 11:13:42;;;;;;;23.60;13.00;;;;;;;5.89;45.07;95177.00;4927926;29;20469;-84
2022/01/20 11:16:10;;;;;;;15.80;10.60;;;;;;;6.06;44.76;95175.97;4927746;29;20860;-86
2022/01/20 11:18:42;;;;;;;24.83;12.00;;;;;;;6.17;44.78;95166.56;4922614;29;20541;-86
2022/01/20 11:21:09;;;;;;;24.60;12.30;;;;;;;6.26;44.97;95161.69;4924124;29;20440;-85
2022/01/20 11:27:00;;;;;;;21.37;11.93;;;;;;;6.40;44.82;95146.03;4924567;29;20430;-86
2022/01/20 11:29:40;;;;;;;22.53;12.60;;;;;;;6.38;43.22;95135.72;4921716;29;20450;-84
2022/01/20 11:32:18;;;;;;;22.50;12.80;;;;;;;6.46;43.64;95133.44;4921190;29;20507;-84
2022/01/20 11:35:00;;;;;;;29.63;14.20;;;;;;;6.55;43.84;95128.53;4921324;29;20540;-83
2022/01/20 11:37:32;;;;;;;25.17;12.07;;;;;;;6.42;42.65;95128.53;4921428;29;20465;-84
2022/01/20 11:40:12;;;;;;;16.27;10.50;;;;;;;6.20;43.27;95122.06;4921367;29;20484;-84
2022/01/20 11:42:40;;;;;;;13.90;9.67;;;;;;;6.30;43.96;95124.09;4921508;29;20432;-84
2022/01/20 11:45:22;;;;;;;27.07;13.40;;;;;;;6.31;43.42;95123.97;4888947;29;20542;-83
2022/01/20 11:47:50;;;;;;;24.43;11.47;;;;;;;6.35;44.18;95115.03;4863142;29;20468;-82
2022/01/20 11:50:18;;;;;;;19.73;9.97;;;;;;;6.52;42.54;95106.97;4862570;29;20495;-83
2022/01/20 11:52:45;;;;;;;15.37;9.50;;;;;;;6.58;42.07;95107.50;4862570;29;20446;-82
2022/01/20 11:55:14;;;;;;;13.97;8.43;;;;;;;6.59;41.85;95102.16;4863045;29;20427;-83
2022/01/20 11:57:41;;;;;;;16.30;9.77;;;;;;;6.54;42.57;95106.84;4869365;29;20450;-83
2022/01/20 12:00:20;;;;;;;24.20;11.07;;;;;;;6.49;41.77;95098.50;4882373;29;20488;-84
2022/01/20 12:02:48;;;;;;;18.37;9.83;;;;;;;6.52;41.71;95090.47;4880946;29;20541;-81
2022/01/20 12:05:25;;;;;;;17.90;8.20;;;;;;;6.62;41.14;95083.72;4875526;29;20518;-82
2022/01/20 12:07:52;;;;;;;13.73;8.83;;;;;;;6.59;40.62;95076.09;4880308;29;20469;-82
2022/01/20 12:10:27;;;;;;;21.03;11.60;;;;;;;6.64;42.38;95074.03;4882252;29;20490;-81
2022/01/20 12:13:05;;;;;;;16.27;8.83;;;;;;;6.76;41.33;95078.44;4879887;29;20477;-80
2022/01/20 12:15:32;;;;;;;11.20;8.53;;;;;;;7.00;40.96;95069.91;4880928;29;20456;-82
2022/01/20 12:17:59;;;;;;;18.83;9.80;;;;;;;7.12;40.24;95074.28;4882420;29;20446;-82
2022/01/20 12:20:28;;;;;;;15.20;8.90;;;;;;;7.20;41.44;95065.91;4883818;29;20455;-83
2022/01/20 12:22:55;;;;;;;19.57;10.13;;;;;;;7.30;39.92;95064.34;4882516;29;20461;-82
2022/01/20 12:25:24;;;;;;;14.53;9.10;;;;;;;7.43;40.35;95073.81;4916058;29;20454;-82
2022/01/20 12:27:51;;;;;;;22.70;10.53;;;;;;;7.49;40.19;95063.91;4921713;29;20455;-82
2022/01/20 12:30:24;;;;;;;23.33;10.93;;;;;;;7.49;39.49;95074.34;4920840;29;20999;-83
2022/01/20 12:32:59;;;;;;;18.03;10.07;;;;;;;7.57;39.80;95059.00;4920805;29;20455;-85
2022/01/20 12:35:36;;;;;;;12.07;5.27;;;;;;;7.69;37.18;95048.50;4904077;29;21010;-84
2022/01/20 12:38:14;;;;;;;26.50;6.07;;;;;;;7.79;37.28;95053.91;4921261;29;20455;-83
2022/01/20 12:40:41;;;;;;;7.73;5.60;;;;;;;7.88;36.98;95041.97;4923299;29;20451;-82
2022/01/20 12:43:08;;;;;;;23.73;6.00;;;;;;;7.94;37.18;95042.38;4921361;29;20459;-84
2022/01/20 12:48:20;;;;;;;8.20;5.50;;;;;;;8.07;36.76;95032.69;4920842;29;20431;-83
2022/01/20 12:50:53;;;;;;;7.30;5.47;;;;;;;8.06;37.31;95024.94;4920097;29;20495;-82
2022/01/20 12:53:20;;;;;;;7.73;4.60;;;;;;;8.09;36.98;95027.34;4920156;29;20462;-83
2022/01/20 12:55:53;;;;;;;17.20;5.80;;;;;;;8.13;37.31;95025.34;4923029;29;20456;-82
2022/01/20 12:58:20;;;;;;;7.57;5.20;;;;;;;8.14;37.62;95011.34;4874031;29;20443;-83
2022/01/20 13:00:59;;;;;;;8.60;4.70;;;;;;;8.17;37.22;94998.88;4921157;29;20467;-81
2022/01/20 13:03:39;;;;;;;6.63;4.50;;;;;;;8.17;37.81;95011.13;4919062;29;20443;-82
2022/01/20 13:06:11;;;;;;;6.53;5.00;;;;;;;8.17;38.62;94998.88;4918472;29;20447;-82
2022/01/20 13:08:41;;;;;;;22.50;5.00;;;;;;;8.19;38.00;94983.09;4917789;29;20955;-84
2022/01/20 13:11:14;;;;;;;7.47;3.87;;;;;;;8.12;38.18;94994.94;4918328;29;20502;-85